Terminal Aerodrome Forecast
Issued by NWS

Home | Current Version | Previous Version | Text Only | Print | Product List | Glossary On
Versions: 1 2 3 4 5 6 7 8 9 10 11 12 13
000
FTUS45 KGGW 140520
TAFOLF
TAF
KOLF 140520Z 1406/1506 30014G19KT P6SM BKN080
     FM140800 31014KT P6SM BKN050
     FM141500 30009KT P6SM BKN023
     FM150000 27007KT P6SM BKN035
     FM150500 24005KT P6SM BKN060=

USA.gov is the U.S. government's official web portal to all federal, state and local government web resources and services.